sensor_id;sensor_type;location;lat;lon;timestamp;P1;durP1;ratioP1;P2;durP2;ratioP2
62947;SDS011;51940;52.126;-0.994;2022-08-19T00:00:11;1.30;;;1.20;;
62947;SDS011;51940;52.126;-0.994;2022-08-19T00:02:40;2.50;;;1.40;;
62947;SDS011;51940;52.126;-0.994;2022-08-19T00:05:06;1.70;;;1.20;;
62947;SDS011;51940;52.126;-0.994;2022-08-19T00:07:34;1.50;;;1.30;;
62947;SDS011;51940;52.126;-0.994;2022-08-19T00:10:00;1.40;;;1.20;;
62947;SDS011;51940;52.126;-0.994;2022-08-19T00:12:26;2.10;;;1.30;;
62947;SDS011;51940;52.126;-0.994;2022-08-19T00:14:52;1.40;;;1.30;;
62947;SDS011;51940;52.126;-0.994;2022-08-19T00:17:19;1.20;;;1.10;;
62947;SDS011;51940;52.126;-0.994;2022-08-19T00:19:45;1.40;;;1.30;;
62947;SDS011;51940;52.126;-0.994;2022-08-19T00:22:11;1.00;;;0.90;;
62947;SDS011;51940;52.126;-0.994;2022-08-19T00:24:36;1.10;;;1.00;;
62947;SDS011;51940;52.126;-0.994;2022-08-19T00:27:03;1.20;;;1.10;;
62947;SDS011;51940;52.126;-0.994;2022-08-19T00:29:30;2.20;;;1.20;;
62947;SDS011;51940;52.126;-0.994;2022-08-19T00:31:56;2.10;;;1.20;;
62947;SDS011;51940;52.126;-0.994;2022-08-19T00:34:23;2.20;;;1.20;;
62947;SDS011;51940;52.126;-0.994;2022-08-19T00:36:50;1.40;;;1.30;;
62947;SDS011;51940;52.126;-0.994;2022-08-19T00:39:15;1.10;;;1.00;;
62947;SDS011;51940;52.126;-0.994;2022-08-19T00:41:42;2.80;;;1.30;;
62947;SDS011;51940;52.126;-0.994;2022-08-19T00:44:11;3.70;;;1.20;;
62947;SDS011;51940;52.126;-0.994;2022-08-19T00:46:44;1.80;;;1.30;;
62947;SDS011;51940;52.126;-0.994;2022-08-19T00:49:22;1.30;;;1.20;;
62947;SDS011;51940;52.126;-0.994;2022-08-19T00:51:51;1.50;;;1.40;;
62947;SDS011;51940;52.126;-0.994;2022-08-19T00:54:20;1.30;;;1.20;;
62947;SDS011;51940;52.126;-0.994;2022-08-19T00:56:46;2.20;;;1.50;;
62947;SDS011;51940;52.126;-0.994;2022-08-19T00:59:14;1.40;;;1.20;;
62947;SDS011;51940;52.126;-0.994;2022-08-19T01:01:42;1.90;;;1.20;;
62947;SDS011;51940;52.126;-0.994;2022-08-19T01:04:08;1.40;;;1.30;;
62947;SDS011;51940;52.126;-0.994;2022-08-19T01:06:35;1.40;;;1.30;;
62947;SDS011;51940;52.126;-0.994;2022-08-19T01:09:03;1.30;;;1.10;;
62947;SDS011;51940;52.126;-0.994;2022-08-19T01:11:30;1.20;;;1.10;;
62947;SDS011;51940;52.126;-0.994;2022-08-19T01:13:59;1.80;;;1.30;;
62947;SDS011;51940;52.126;-0.994;2022-08-19T01:16:25;1.30;;;1.20;;
62947;SDS011;51940;52.126;-0.994;2022-08-19T01:18:54;1.40;;;1.20;;
62947;SDS011;51940;52.126;-0.994;2022-08-19T01:21:37;1.50;;;1.10;;
62947;SDS011;51940;52.126;-0.994;2022-08-19T01:24:11;2.30;;;1.20;;
62947;SDS011;51940;52.126;-0.994;2022-08-19T01:26:40;1.60;;;1.00;;
62947;SDS011;51940;52.126;-0.994;2022-08-19T01:29:08;1.40;;;1.00;;
62947;SDS011;51940;52.126;-0.994;2022-08-19T01:31:35;0.90;;;0.90;;
62947;SDS011;51940;52.126;-0.994;2022-08-19T01:34:02;1.20;;;0.90;;
62947;SDS011;51940;52.126;-0.994;2022-08-19T01:38:53;1.10;;;1.00;;
62947;SDS011;51940;52.126;-0.994;2022-08-19T01:41:20;1.00;;;0.90;;
62947;SDS011;51940;52.126;-0.994;2022-08-19T01:43:48;1.10;;;0.90;;
62947;SDS011;51940;52.126;-0.994;2022-08-19T01:46:15;1.20;;;1.00;;
62947;SDS011;51940;52.126;-0.994;2022-08-19T01:48:40;0.90;;;0.90;;
62947;SDS011;51940;52.126;-0.994;2022-08-19T01:51:07;1.00;;;0.90;;
62947;SDS011;51940;52.126;-0.994;2022-08-19T01:53:34;0.90;;;0.90;;
62947;SDS011;51940;52.126;-0.994;2022-08-19T01:56:00;0.80;;;0.80;;
62947;SDS011;51940;52.126;-0.994;2022-08-19T01:58:29;1.30;;;0.90;;
62947;SDS011;51940;52.126;-0.994;2022-08-19T02:01:01;1.20;;;0.90;;
62947;SDS011;51940;52.126;-0.994;2022-08-19T02:03:27;0.90;;;0.90;;
62947;SDS011;51940;52.126;-0.994;2022-08-19T02:06:00;1.20;;;0.90;;
62947;SDS011;51940;52.126;-0.994;2022-08-19T02:08:30;1.40;;;0.70;;
62947;SDS011;51940;52.126;-0.994;2022-08-19T02:10:57;0.80;;;0.80;;
62947;SDS011;51940;52.126;-0.994;2022-08-19T02:13:22;0.80;;;0.80;;
62947;SDS011;51940;52.126;-0.994;2022-08-19T02:15:49;1.50;;;1.00;;
62947;SDS011;51940;52.126;-0.994;2022-08-19T02:18:15;0.80;;;0.80;;
62947;SDS011;51940;52.126;-0.994;2022-08-19T02:20:41;1.10;;;1.00;;
62947;SDS011;51940;52.126;-0.994;2022-08-19T02:23:07;1.00;;;0.90;;
62947;SDS011;51940;52.126;-0.994;2022-08-19T02:25:34;1.10;;;0.80;;
62947;SDS011;51940;52.126;-0.994;2022-08-19T02:27:59;3.60;;;0.90;;
62947;SDS011;51940;52.126;-0.994;2022-08-19T02:30:24;0.90;;;0.90;;
62947;SDS011;51940;52.126;-0.994;2022-08-19T02:32:50;0.70;;;0.70;;
62947;SDS011;51940;52.126;-0.994;2022-08-19T02:35:17;0.80;;;0.70;;
62947;SDS011;51940;52.126;-0.994;2022-08-19T02:37:42;1.30;;;0.90;;
62947;SDS011;51940;52.126;-0.994;2022-08-19T02:40:27;0.90;;;0.70;;
62947;SDS011;51940;52.126;-0.994;2022-08-19T02:42:53;0.90;;;0.70;;
62947;SDS011;51940;52.126;-0.994;2022-08-19T02:45:19;0.90;;;0.70;;
62947;SDS011;51940;52.126;-0.994;2022-08-19T02:47:45;0.80;;;0.80;;
62947;SDS011;51940;52.126;-0.994;2022-08-19T02:50:10;0.80;;;0.80;;
62947;SDS011;51940;52.126;-0.994;2022-08-19T02:52:36;2.10;;;0.70;;
62947;SDS011;51940;52.126;-0.994;2022-08-19T02:55:02;0.60;;;0.60;;
62947;SDS011;51940;52.126;-0.994;2022-08-19T02:57:29;1.20;;;0.70;;
62947;SDS011;51940;52.126;-0.994;2022-08-19T02:59:56;0.60;;;0.50;;
62947;SDS011;51940;52.126;-0.994;2022-08-19T03:02:22;0.60;;;0.60;;
62947;SDS011;51940;52.126;-0.994;2022-08-19T03:04:47;1.20;;;0.70;;
62947;SDS011;51940;52.126;-0.994;2022-08-19T03:07:13;0.70;;;0.70;;
62947;SDS011;51940;52.126;-0.994;2022-08-19T03:09:40;0.90;;;0.70;;
62947;SDS011;51940;52.126;-0.994;2022-08-19T03:12:07;1.30;;;0.60;;
62947;SDS011;51940;52.126;-0.994;2022-08-19T03:14:33;1.60;;;0.60;;
62947;SDS011;51940;52.126;-0.994;2022-08-19T03:16:58;0.70;;;0.60;;
62947;SDS011;51940;52.126;-0.994;2022-08-19T03:19:24;0.60;;;0.60;;
62947;SDS011;51940;52.126;-0.994;2022-08-19T03:21:50;0.70;;;0.60;;
62947;SDS011;51940;52.126;-0.994;2022-08-19T03:24:17;0.80;;;0.60;;
62947;SDS011;51940;52.126;-0.994;2022-08-19T03:26:45;0.60;;;0.60;;
62947;SDS011;51940;52.126;-0.994;2022-08-19T03:29:12;0.50;;;0.50;;
62947;SDS011;51940;52.126;-0.994;2022-08-19T03:31:39;0.50;;;0.50;;
62947;SDS011;51940;52.126;-0.994;2022-08-19T03:34:08;0.70;;;0.60;;
62947;SDS011;51940;52.126;-0.994;2022-08-19T03:36:37;0.60;;;0.60;;
62947;SDS011;51940;52.126;-0.994;2022-08-19T03:39:02;1.00;;;0.50;;
62947;SDS011;51940;52.126;-0.994;2022-08-19T03:41:36;1.00;;;0.60;;
62947;SDS011;51940;52.126;-0.994;2022-08-19T03:44:03;1.50;;;0.50;;
62947;SDS011;51940;52.126;-0.994;2022-08-19T03:46:33;1.80;;;0.60;;
62947;SDS011;51940;52.126;-0.994;2022-08-19T03:49:02;0.50;;;0.50;;
62947;SDS011;51940;52.126;-0.994;2022-08-19T03:51:33;0.60;;;0.60;;
62947;SDS011;51940;52.126;-0.994;2022-08-19T03:54:03;0.60;;;0.60;;
62947;SDS011;51940;52.126;-0.994;2022-08-19T03:56:34;0.70;;;0.70;;
62947;SDS011;51940;52.126;-0.994;2022-08-19T03:59:01;1.30;;;0.90;;
62947;SDS011;51940;52.126;-0.994;2022-08-19T04:01:28;1.20;;;0.70;;
62947;SDS011;51940;52.126;-0.994;2022-08-19T04:03:58;1.40;;;0.80;;
62947;SDS011;51940;52.126;-0.994;2022-08-19T04:08:52;1.50;;;0.70;;
62947;SDS011;51940;52.126;-0.994;2022-08-19T04:11:24;0.70;;;0.70;;
62947;SDS011;51940;52.126;-0.994;2022-08-19T04:13:52;1.80;;;0.80;;
62947;SDS011;51940;52.126;-0.994;2022-08-19T04:16:20;1.50;;;0.90;;
62947;SDS011;51940;52.126;-0.994;2022-08-19T04:18:47;0.80;;;0.80;;
62947;SDS011;51940;52.126;-0.994;2022-08-19T04:21:20;1.70;;;0.80;;
62947;SDS011;51940;52.126;-0.994;2022-08-19T04:23:49;0.90;;;0.90;;
62947;SDS011;51940;52.126;-0.994;2022-08-19T04:26:16;1.00;;;0.90;;
62947;SDS011;51940;52.126;-0.994;2022-08-19T04:28:44;1.80;;;0.70;;
62947;SDS011;51940;52.126;-0.994;2022-08-19T04:31:14;1.10;;;0.90;;
62947;SDS011;51940;52.126;-0.994;2022-08-19T04:33:41;1.20;;;0.90;;
62947;SDS011;51940;52.126;-0.994;2022-08-19T04:36:07;1.00;;;0.90;;
62947;SDS011;51940;52.126;-0.994;2022-08-19T04:38:35;1.10;;;0.90;;
62947;SDS011;51940;52.126;-0.994;2022-08-19T04:41:02;1.10;;;1.00;;
62947;SDS011;51940;52.126;-0.994;2022-08-19T04:43:46;0.90;;;0.90;;
62947;SDS011;51940;52.126;-0.994;2022-08-19T04:46:15;1.00;;;1.00;;
62947;SDS011;51940;52.126;-0.994;2022-08-19T04:48:42;1.70;;;1.10;;
62947;SDS011;51940;52.126;-0.994;2022-08-19T04:51:10;1.10;;;1.00;;
62947;SDS011;51940;52.126;-0.994;2022-08-19T04:53:38;1.20;;;1.10;;
62947;SDS011;51940;52.126;-0.994;2022-08-19T04:56:08;2.30;;;1.10;;
62947;SDS011;51940;52.126;-0.994;2022-08-19T04:58:39;1.10;;;1.00;;
62947;SDS011;51940;52.126;-0.994;2022-08-19T05:01:07;1.00;;;0.90;;
62947;SDS011;51940;52.126;-0.994;2022-08-19T05:03:43;1.90;;;1.10;;
62947;SDS011;51940;52.126;-0.994;2022-08-19T05:06:11;1.90;;;0.90;;
62947;SDS011;51940;52.126;-0.994;2022-08-19T05:08:39;1.20;;;1.10;;
62947;SDS011;51940;52.126;-0.994;2022-08-19T05:11:30;1.40;;;1.20;;
62947;SDS011;51940;52.126;-0.994;2022-08-19T05:13:55;1.20;;;1.10;;
62947;SDS011;51940;52.126;-0.994;2022-08-19T05:16:22;1.40;;;1.30;;
62947;SDS011;51940;52.126;-0.994;2022-08-19T05:18:49;2.00;;;1.20;;
62947;SDS011;51940;52.126;-0.994;2022-08-19T05:21:34;1.40;;;1.20;;
62947;SDS011;51940;52.126;-0.994;2022-08-19T05:24:20;1.70;;;1.20;;
62947;SDS011;51940;52.126;-0.994;2022-08-19T05:26:47;2.50;;;1.20;;
62947;SDS011;51940;52.126;-0.994;2022-08-19T05:29:15;1.10;;;1.00;;
62947;SDS011;51940;52.126;-0.994;2022-08-19T05:31:43;1.00;;;1.00;;
62947;SDS011;51940;52.126;-0.994;2022-08-19T05:34:09;1.10;;;1.00;;
62947;SDS011;51940;52.126;-0.994;2022-08-19T05:36:37;1.10;;;1.00;;
62947;SDS011;51940;52.126;-0.994;2022-08-19T05:39:08;0.80;;;0.80;;
62947;SDS011;51940;52.126;-0.994;2022-08-19T05:41:45;0.90;;;0.80;;
62947;SDS011;51940;52.126;-0.994;2022-08-19T05:44:12;2.90;;;1.30;;
62947;SDS011;51940;52.126;-0.994;2022-08-19T05:46:39;1.00;;;0.70;;
62947;SDS011;51940;52.126;-0.994;2022-08-19T05:49:05;1.30;;;0.90;;
62947;SDS011;51940;52.126;-0.994;2022-08-19T05:51:33;1.20;;;0.80;;
62947;SDS011;51940;52.126;-0.994;2022-08-19T05:54:01;1.10;;;0.70;;
62947;SDS011;51940;52.126;-0.994;2022-08-19T05:56:27;1.00;;;0.90;;
62947;SDS011;51940;52.126;-0.994;2022-08-19T05:58:55;0.70;;;0.70;;
62947;SDS011;51940;52.126;-0.994;2022-08-19T06:01:20;1.10;;;0.70;;
62947;SDS011;51940;52.126;-0.994;2022-08-19T06:03:46;1.20;;;0.70;;
62947;SDS011;51940;52.126;-0.994;2022-08-19T06:06:17;2.10;;;0.50;;
62947;SDS011;51940;52.126;-0.994;2022-08-19T06:08:43;1.00;;;0.60;;
62947;SDS011;51940;52.126;-0.994;2022-08-19T06:11:17;1.10;;;0.60;;
62947;SDS011;51940;52.126;-0.994;2022-08-19T06:13:51;0.70;;;0.50;;
62947;SDS011;51940;52.126;-0.994;2022-08-19T06:16:19;1.60;;;0.60;;
62947;SDS011;51940;52.126;-0.994;2022-08-19T06:18:47;1.60;;;0.70;;
62947;SDS011;51940;52.126;-0.994;2022-08-19T06:21:14;1.50;;;0.60;;
62947;SDS011;51940;52.126;-0.994;2022-08-19T06:23:40;1.30;;;0.70;;
62947;SDS011;51940;52.126;-0.994;2022-08-19T06:26:05;1.40;;;0.70;;
62947;SDS011;51940;52.126;-0.994;2022-08-19T06:28:31;0.70;;;0.70;;
62947;SDS011;51940;52.126;-0.994;2022-08-19T06:30:58;1.50;;;0.70;;
62947;SDS011;51940;52.126;-0.994;2022-08-19T06:33:23;2.20;;;0.70;;
62947;SDS011;51940;52.126;-0.994;2022-08-19T06:35:49;1.30;;;0.70;;
62947;SDS011;51940;52.126;-0.994;2022-08-19T06:38:14;1.80;;;0.70;;
62947;SDS011;51940;52.126;-0.994;2022-08-19T06:40:40;1.20;;;0.80;;
62947;SDS011;51940;52.126;-0.994;2022-08-19T06:43:05;2.40;;;1.00;;
62947;SDS011;51940;52.126;-0.994;2022-08-19T06:45:31;3.70;;;0.90;;
62947;SDS011;51940;52.126;-0.994;2022-08-19T06:47:56;3.50;;;1.10;;
62947;SDS011;51940;52.126;-0.994;2022-08-19T06:50:22;3.10;;;0.90;;
62947;SDS011;51940;52.126;-0.994;2022-08-19T06:52:48;1.70;;;1.00;;
62947;SDS011;51940;52.126;-0.994;2022-08-19T06:55:14;1.30;;;0.80;;
62947;SDS011;51940;52.126;-0.994;2022-08-19T06:57:41;4.40;;;0.90;;
62947;SDS011;51940;52.126;-0.994;2022-08-19T07:00:08;2.00;;;0.90;;
62947;SDS011;51940;52.126;-0.994;2022-08-19T07:02:41;2.60;;;1.00;;
62947;SDS011;51940;52.126;-0.994;2022-08-19T07:05:08;4.50;;;1.20;;
62947;SDS011;51940;52.126;-0.994;2022-08-19T07:07:33;4.50;;;1.20;;
62947;SDS011;51940;52.126;-0.994;2022-08-19T07:10:00;5.20;;;1.20;;
62947;SDS011;51940;52.126;-0.994;2022-08-19T07:12:26;2.20;;;1.20;;
62947;SDS011;51940;52.126;-0.994;2022-08-19T07:14:53;4.60;;;1.30;;
62947;SDS011;51940;52.126;-0.994;2022-08-19T07:17:19;3.60;;;1.50;;
62947;SDS011;51940;52.126;-0.994;2022-08-19T07:19:45;5.50;;;1.20;;
62947;SDS011;51940;52.126;-0.994;2022-08-19T07:22:11;2.00;;;1.20;;
62947;SDS011;51940;52.126;-0.994;2022-08-19T07:24:36;3.00;;;1.20;;
62947;SDS011;51940;52.126;-0.994;2022-08-19T07:27:03;2.20;;;1.40;;
62947;SDS011;51940;52.126;-0.994;2022-08-19T07:29:31;3.50;;;1.30;;
62947;SDS011;51940;52.126;-0.994;2022-08-19T07:31:58;5.60;;;1.60;;
62947;SDS011;51940;52.126;-0.994;2022-08-19T07:34:25;5.90;;;1.80;;
62947;SDS011;51940;52.126;-0.994;2022-08-19T07:36:53;4.00;;;1.60;;
62947;SDS011;51940;52.126;-0.994;2022-08-19T07:39:21;6.90;;;1.50;;
62947;SDS011;51940;52.126;-0.994;2022-08-19T07:41:55;5.60;;;1.60;;
62947;SDS011;51940;52.126;-0.994;2022-08-19T07:44:22;4.10;;;1.40;;
62947;SDS011;51940;52.126;-0.994;2022-08-19T07:46:50;4.70;;;1.20;;
62947;SDS011;51940;52.126;-0.994;2022-08-19T07:49:21;5.10;;;1.40;;
62947;SDS011;51940;52.126;-0.994;2022-08-19T07:51:51;6.10;;;1.40;;
62947;SDS011;51940;52.126;-0.994;2022-08-19T07:54:19;4.10;;;1.60;;
62947;SDS011;51940;52.126;-0.994;2022-08-19T07:56:47;6.60;;;1.60;;
62947;SDS011;51940;52.126;-0.994;2022-08-19T07:59:14;6.30;;;1.40;;
62947;SDS011;51940;52.126;-0.994;2022-08-19T08:01:42;4.40;;;1.30;;
62947;SDS011;51940;52.126;-0.994;2022-08-19T08:04:08;6.00;;;1.70;;
62947;SDS011;51940;52.126;-0.994;2022-08-19T08:06:53;8.00;;;1.70;;
62947;SDS011;51940;52.126;-0.994;2022-08-19T08:09:39;6.80;;;1.70;;
62947;SDS011;51940;52.126;-0.994;2022-08-19T08:14:41;5.70;;;1.30;;
62947;SDS011;51940;52.126;-0.994;2022-08-19T08:17:12;5.50;;;1.70;;
62947;SDS011;51940;52.126;-0.994;2022-08-19T08:19:40;5.50;;;1.40;;
62947;SDS011;51940;52.126;-0.994;2022-08-19T08:22:07;7.60;;;2.00;;
62947;SDS011;51940;52.126;-0.994;2022-08-19T08:24:53;6.40;;;1.40;;
62947;SDS011;51940;52.126;-0.994;2022-08-19T08:27:19;8.80;;;1.50;;
62947;SDS011;51940;52.126;-0.994;2022-08-19T08:29:45;8.20;;;1.40;;
62947;SDS011;51940;52.126;-0.994;2022-08-19T08:32:10;6.40;;;1.50;;
62947;SDS011;51940;52.126;-0.994;2022-08-19T08:34:36;5.30;;;1.50;;
62947;SDS011;51940;52.126;-0.994;2022-08-19T08:37:02;6.10;;;1.50;;
62947;SDS011;51940;52.126;-0.994;2022-08-19T08:39:28;7.00;;;1.50;;
62947;SDS011;51940;52.126;-0.994;2022-08-19T08:44:23;4.50;;;1.40;;
62947;SDS011;51940;52.126;-0.994;2022-08-19T08:47:04;6.50;;;1.60;;
62947;SDS011;51940;52.126;-0.994;2022-08-19T08:49:45;5.30;;;1.40;;
62947;SDS011;51940;52.126;-0.994;2022-08-19T08:54:48;7.50;;;1.20;;
62947;SDS011;51940;52.126;-0.994;2022-08-19T08:57:36;5.00;;;1.40;;
62947;SDS011;51940;52.126;-0.994;2022-08-19T09:00:10;3.90;;;1.30;;
62947;SDS011;51940;52.126;-0.994;2022-08-19T09:05:09;7.40;;;1.70;;
62947;SDS011;51940;52.126;-0.994;2022-08-19T09:07:46;5.50;;;1.30;;
62947;SDS011;51940;52.126;-0.994;2022-08-19T09:10:27;5.30;;;1.30;;
62947;SDS011;51940;52.126;-0.994;2022-08-19T09:13:01;6.60;;;1.30;;
62947;SDS011;51940;52.126;-0.994;2022-08-19T09:15:48;5.90;;;1.10;;
62947;SDS011;51940;52.126;-0.994;2022-08-19T09:18:19;3.70;;;1.10;;
62947;SDS011;51940;52.126;-0.994;2022-08-19T09:20:45;5.90;;;1.40;;
62947;SDS011;51940;52.126;-0.994;2022-08-19T09:23:12;5.50;;;1.10;;
62947;SDS011;51940;52.126;-0.994;2022-08-19T09:25:38;5.30;;;1.30;;
62947;SDS011;51940;52.126;-0.994;2022-08-19T09:28:05;5.20;;;1.20;;
62947;SDS011;51940;52.126;-0.994;2022-08-19T09:30:38;6.80;;;1.30;;
62947;SDS011;51940;52.126;-0.994;2022-08-19T09:33:05;4.70;;;1.30;;
62947;SDS011;51940;52.126;-0.994;2022-08-19T09:35:32;8.50;;;1.60;;
62947;SDS011;51940;52.126;-0.994;2022-08-19T09:37:58;5.10;;;1.30;;
62947;SDS011;51940;52.126;-0.994;2022-08-19T09:40:26;4.90;;;1.30;;
62947;SDS011;51940;52.126;-0.994;2022-08-19T09:42:53;7.00;;;1.30;;
62947;SDS011;51940;52.126;-0.994;2022-08-19T09:45:21;3.90;;;1.20;;
62947;SDS011;51940;52.126;-0.994;2022-08-19T09:47:51;6.60;;;1.50;;
62947;SDS011;51940;52.126;-0.994;2022-08-19T09:50:17;5.80;;;1.40;;
62947;SDS011;51940;52.126;-0.994;2022-08-19T09:52:43;4.20;;;1.30;;
62947;SDS011;51940;52.126;-0.994;2022-08-19T09:55:10;3.00;;;1.00;;
62947;SDS011;51940;52.126;-0.994;2022-08-19T09:57:36;4.20;;;1.10;;
62947;SDS011;51940;52.126;-0.994;2022-08-19T10:00:04;6.20;;;1.10;;
62947;SDS011;51940;52.126;-0.994;2022-08-19T10:02:32;4.00;;;1.10;;
62947;SDS011;51940;52.126;-0.994;2022-08-19T10:04:57;5.30;;;1.20;;
62947;SDS011;51940;52.126;-0.994;2022-08-19T10:07:42;4.00;;;1.20;;
62947;SDS011;51940;52.126;-0.994;2022-08-19T10:10:07;5.90;;;1.30;;
62947;SDS011;51940;52.126;-0.994;2022-08-19T10:12:34;5.20;;;1.30;;
62947;SDS011;51940;52.126;-0.994;2022-08-19T10:15:02;3.90;;;1.10;;
62947;SDS011;51940;52.126;-0.994;2022-08-19T10:17:29;5.10;;;1.10;;
62947;SDS011;51940;52.126;-0.994;2022-08-19T10:19:54;4.90;;;1.10;;
62947;SDS011;51940;52.126;-0.994;2022-08-19T10:22:20;3.50;;;1.10;;
62947;SDS011;51940;52.126;-0.994;2022-08-19T10:24:46;4.50;;;1.20;;
62947;SDS011;51940;52.126;-0.994;2022-08-19T10:27:12;6.60;;;1.40;;
62947;SDS011;51940;52.126;-0.994;2022-08-19T10:29:39;6.00;;;1.40;;
62947;SDS011;51940;52.126;-0.994;2022-08-19T10:32:06;5.90;;;1.80;;
62947;SDS011;51940;52.126;-0.994;2022-08-19T10:34:33;3.70;;;1.20;;
62947;SDS011;51940;52.126;-0.994;2022-08-19T10:37:01;3.90;;;1.10;;
62947;SDS011;51940;52.126;-0.994;2022-08-19T10:39:30;5.70;;;1.20;;
62947;SDS011;51940;52.126;-0.994;2022-08-19T10:41:57;4.70;;;1.60;;
62947;SDS011;51940;52.126;-0.994;2022-08-19T10:44:23;4.90;;;1.40;;
62947;SDS011;51940;52.126;-0.994;2022-08-19T10:46:49;6.30;;;1.40;;
62947;SDS011;51940;52.126;-0.994;2022-08-19T10:49:15;4.30;;;1.10;;
62947;SDS011;51940;52.126;-0.994;2022-08-19T10:51:41;7.60;;;1.30;;
62947;SDS011;51940;52.126;-0.994;2022-08-19T10:54:25;4.80;;;1.00;;
62947;SDS011;51940;52.126;-0.994;2022-08-19T10:57:12;6.20;;;1.30;;
62947;SDS011;51940;52.126;-0.994;2022-08-19T10:59:38;4.30;;;1.30;;
62947;SDS011;51940;52.126;-0.994;2022-08-19T11:02:04;3.90;;;0.90;;
62947;SDS011;51940;52.126;-0.994;2022-08-19T11:04:34;7.60;;;1.10;;
62947;SDS011;51940;52.126;-0.994;2022-08-19T11:07:00;5.00;;;1.10;;
62947;SDS011;51940;52.126;-0.994;2022-08-19T11:09:26;5.90;;;1.90;;
62947;SDS011;51940;52.126;-0.994;2022-08-19T11:11:52;6.60;;;1.20;;
62947;SDS011;51940;52.126;-0.994;2022-08-19T11:14:19;7.00;;;1.30;;
62947;SDS011;51940;52.126;-0.994;2022-08-19T11:16:46;6.10;;;1.20;;
62947;SDS011;51940;52.126;-0.994;2022-08-19T11:19:12;5.90;;;1.40;;
62947;SDS011;51940;52.126;-0.994;2022-08-19T11:21:40;4.10;;;1.00;;
62947;SDS011;51940;52.126;-0.994;2022-08-19T11:24:08;4.10;;;1.10;;
62947;SDS011;51940;52.126;-0.994;2022-08-19T11:26:45;5.20;;;1.30;;
62947;SDS011;51940;52.126;-0.994;2022-08-19T11:29:14;4.80;;;1.20;;
62947;SDS011;51940;52.126;-0.994;2022-08-19T11:31:41;3.20;;;1.30;;
62947;SDS011;51940;52.126;-0.994;2022-08-19T11:34:11;3.60;;;0.90;;
62947;SDS011;51940;52.126;-0.994;2022-08-19T11:36:42;4.00;;;1.10;;
62947;SDS011;51940;52.126;-0.994;2022-08-19T11:39:10;3.50;;;1.20;;
62947;SDS011;51940;52.126;-0.994;2022-08-19T11:41:37;3.10;;;0.90;;
62947;SDS011;51940;52.126;-0.994;2022-08-19T11:44:03;4.30;;;1.20;;
62947;SDS011;51940;52.126;-0.994;2022-08-19T11:46:30;4.50;;;1.40;;
62947;SDS011;51940;52.126;-0.994;2022-08-19T11:48:59;7.30;;;1.50;;
62947;SDS011;51940;52.126;-0.994;2022-08-19T11:51:26;4.90;;;1.10;;
62947;SDS011;51940;52.126;-0.994;2022-08-19T11:53:52;4.00;;;1.20;;
62947;SDS011;51940;52.126;-0.994;2022-08-19T11:56:20;3.90;;;1.10;;
62947;SDS011;51940;52.126;-0.994;2022-08-19T11:58:46;3.30;;;1.00;;
62947;SDS011;51940;52.126;-0.994;2022-08-19T12:01:13;3.00;;;1.10;;
62947;SDS011;51940;52.126;-0.994;2022-08-19T12:03:41;5.40;;;1.10;;
62947;SDS011;51940;52.126;-0.994;2022-08-19T12:06:09;4.70;;;1.20;;
62947;SDS011;51940;52.126;-0.994;2022-08-19T12:08:38;7.10;;;1.30;;
62947;SDS011;51940;52.126;-0.994;2022-08-19T12:11:05;3.80;;;1.20;;
62947;SDS011;51940;52.126;-0.994;2022-08-19T12:13:35;4.50;;;1.10;;
62947;SDS011;51940;52.126;-0.994;2022-08-19T12:16:06;4.20;;;1.10;;
62947;SDS011;51940;52.126;-0.994;2022-08-19T12:18:37;4.30;;;1.00;;
62947;SDS011;51940;52.126;-0.994;2022-08-19T12:21:03;3.60;;;0.90;;
62947;SDS011;51940;52.126;-0.994;2022-08-19T12:23:29;3.40;;;0.90;;
62947;SDS011;51940;52.126;-0.994;2022-08-19T12:25:55;4.70;;;1.40;;
62947;SDS011;51940;52.126;-0.994;2022-08-19T12:28:22;4.20;;;1.10;;
62947;SDS011;51940;52.126;-0.994;2022-08-19T12:30:49;3.00;;;1.20;;
62947;SDS011;51940;52.126;-0.994;2022-08-19T12:33:16;3.90;;;1.10;;
62947;SDS011;51940;52.126;-0.994;2022-08-19T12:35:48;3.20;;;0.90;;
62947;SDS011;51940;52.126;-0.994;2022-08-19T12:38:14;5.30;;;1.10;;
62947;SDS011;51940;52.126;-0.994;2022-08-19T12:40:39;3.00;;;0.90;;
62947;SDS011;51940;52.126;-0.994;2022-08-19T12:43:08;5.00;;;1.10;;
62947;SDS011;51940;52.126;-0.994;2022-08-19T12:45:36;4.90;;;1.00;;
62947;SDS011;51940;52.126;-0.994;2022-08-19T12:48:02;4.00;;;1.30;;
62947;SDS011;51940;52.126;-0.994;2022-08-19T12:50:28;5.10;;;1.20;;
62947;SDS011;51940;52.126;-0.994;2022-08-19T12:52:54;2.40;;;0.70;;
62947;SDS011;51940;52.126;-0.994;2022-08-19T12:55:19;5.00;;;1.10;;
62947;SDS011;51940;52.126;-0.994;2022-08-19T12:57:45;3.00;;;0.90;;
62947;SDS011;51940;52.126;-0.994;2022-08-19T13:00:12;3.50;;;1.00;;
62947;SDS011;51940;52.126;-0.994;2022-08-19T13:02:44;3.40;;;1.00;;
62947;SDS011;51940;52.126;-0.994;2022-08-19T13:05:15;5.30;;;1.10;;
62947;SDS011;51940;52.126;-0.994;2022-08-19T13:07:52;4.60;;;1.10;;
62947;SDS011;51940;52.126;-0.994;2022-08-19T13:10:23;4.60;;;1.00;;
62947;SDS011;51940;52.126;-0.994;2022-08-19T13:12:52;4.10;;;1.00;;
62947;SDS011;51940;52.126;-0.994;2022-08-19T13:15:19;5.70;;;1.20;;
62947;SDS011;51940;52.126;-0.994;2022-08-19T13:17:50;3.00;;;1.00;;
62947;SDS011;51940;52.126;-0.994;2022-08-19T13:20:18;4.00;;;1.10;;
62947;SDS011;51940;52.126;-0.994;2022-08-19T13:22:45;3.50;;;0.80;;
62947;SDS011;51940;52.126;-0.994;2022-08-19T13:25:12;6.10;;;1.10;;
62947;SDS011;51940;52.126;-0.994;2022-08-19T13:27:42;2.70;;;1.00;;
62947;SDS011;51940;52.126;-0.994;2022-08-19T13:30:10;2.30;;;0.90;;
62947;SDS011;51940;52.126;-0.994;2022-08-19T13:32:56;4.40;;;1.00;;
62947;SDS011;51940;52.126;-0.994;2022-08-19T13:35:44;4.70;;;0.80;;
62947;SDS011;51940;52.126;-0.994;2022-08-19T13:38:13;4.50;;;1.00;;
62947;SDS011;51940;52.126;-0.994;2022-08-19T13:40:42;4.30;;;1.20;;
62947;SDS011;51940;52.126;-0.994;2022-08-19T13:43:08;5.10;;;1.10;;
62947;SDS011;51940;52.126;-0.994;2022-08-19T13:45:34;4.30;;;1.10;;
62947;SDS011;51940;52.126;-0.994;2022-08-19T13:48:01;3.00;;;0.90;;
62947;SDS011;51940;52.126;-0.994;2022-08-19T13:50:35;4.10;;;1.10;;
62947;SDS011;51940;52.126;-0.994;2022-08-19T13:53:08;3.90;;;0.90;;
62947;SDS011;51940;52.126;-0.994;2022-08-19T13:55:42;5.50;;;1.30;;
62947;SDS011;51940;52.126;-0.994;2022-08-19T13:58:11;4.90;;;1.20;;
62947;SDS011;51940;52.126;-0.994;2022-08-19T14:00:39;3.00;;;1.00;;
62947;SDS011;51940;52.126;-0.994;2022-08-19T14:03:08;5.20;;;0.90;;
62947;SDS011;51940;52.126;-0.994;2022-08-19T14:05:34;3.60;;;0.90;;
62947;SDS011;51940;52.126;-0.994;2022-08-19T14:08:00;4.10;;;1.10;;
62947;SDS011;51940;52.126;-0.994;2022-08-19T14:10:27;5.70;;;0.90;;
62947;SDS011;51940;52.126;-0.994;2022-08-19T14:12:56;3.60;;;1.00;;
62947;SDS011;51940;52.126;-0.994;2022-08-19T14:15:23;4.20;;;0.80;;
62947;SDS011;51940;52.126;-0.994;2022-08-19T14:17:50;3.00;;;1.00;;
62947;SDS011;51940;52.126;-0.994;2022-08-19T14:20:16;4.40;;;1.10;;
62947;SDS011;51940;52.126;-0.994;2022-08-19T14:22:42;3.50;;;1.00;;
62947;SDS011;51940;52.126;-0.994;2022-08-19T14:25:10;2.40;;;0.80;;
62947;SDS011;51940;52.126;-0.994;2022-08-19T14:27:40;2.50;;;0.80;;
62947;SDS011;51940;52.126;-0.994;2022-08-19T14:30:10;8.00;;;0.90;;
62947;SDS011;51940;52.126;-0.994;2022-08-19T14:32:39;4.80;;;1.10;;
62947;SDS011;51940;52.126;-0.994;2022-08-19T14:35:05;4.70;;;1.20;;
62947;SDS011;51940;52.126;-0.994;2022-08-19T14:37:32;5.20;;;1.10;;
62947;SDS011;51940;52.126;-0.994;2022-08-19T14:39:59;6.70;;;0.90;;
62947;SDS011;51940;52.126;-0.994;2022-08-19T14:42:25;3.10;;;0.70;;
62947;SDS011;51940;52.126;-0.994;2022-08-19T14:44:50;5.70;;;1.00;;
62947;SDS011;51940;52.126;-0.994;2022-08-19T14:47:16;2.60;;;0.80;;
62947;SDS011;51940;52.126;-0.994;2022-08-19T14:49:41;2.60;;;0.70;;
62947;SDS011;51940;52.126;-0.994;2022-08-19T14:52:07;4.00;;;1.00;;
62947;SDS011;51940;52.126;-0.994;2022-08-19T14:54:32;4.40;;;1.00;;